»·PEaware :: N9298L KHIO-KSLE

N9298L :: KHIO-KSLE

FLIGHT INFORMATION

Flight Status: Arrived
Operator: Privately registered:
United States
More flights under this callsign
Pilot: Brendan O. (14500)
Aircraft: PIPER PA-32 SARATOGA
(PA32)
More flights by this aircraft type
Origin: KHIO Portland-Hillsboro
United States
Destination: KSLE McNary
United States
More flights between these airports :: More routes between these airports
Route: FARM6 UBG
File this flight plan on PilotEdge
Remarks:
Altitude:
(Current/Filed)
5,000ft
Speed:
(Current/Filed)
145kts
Departed: 15-Nov-17 09:21 AM
Arrived: 15-Nov-17 09:57 AM
Distance/Time
Traveled:
38nm/0:35
Distance/Time
To Go:
Arrived

Flight Plot

Page will automatically refresh every two minutes.

Flight plan parsing failed; only flown route is shown


Map Options




Map Legend


Flown Route
Filed Route
Departure Airport
Arrival Airport
Navaid (VOR, NDB)
Fix

Horizontal Profiles

Position Reports

Time Latitude Longitude Heading Altitude Ground
Speed
15-Nov-17 09:08 45.535650 -122.948157 180 199ft 0kts
15-Nov-17 09:09 45.535650 -122.948157 180 199ft 0kts
15-Nov-17 09:10 45.535650 -122.948157 180 199ft 0kts
15-Nov-17 09:11 45.535650 -122.948157 180 199ft 0kts
15-Nov-17 09:12 45.535650 -122.948157 180 199ft 0kts
15-Nov-17 09:13 45.535650 -122.948157 180 199ft 0kts
15-Nov-17 09:14 45.535650 -122.948157 180 199ft 0kts
15-Nov-17 09:15 45.535575 -122.948384 15 199ft 6kts
15-Nov-17 09:16 45.535541 -122.948064 124 199ft 0kts
15-Nov-17 09:17 45.535541 -122.948064 124 199ft 0kts
15-Nov-17 09:18 45.535552 -122.947428 3 199ft 15kts
15-Nov-17 09:19 45.540129 -122.951456 327 199ft 22kts
15-Nov-17 09:20 45.544193 -122.955475 29 198ft 0kts
15-Nov-17 09:21 45.544206 -122.955464 30 198ft 0kts
15-Nov-17 09:22 45.544206 -122.955464 30 198ft 0kts
15-Nov-17 09:23 45.544206 -122.955464 30 198ft 0kts
15-Nov-17 09:24 45.544206 -122.955464 30 198ft 0kts
15-Nov-17 09:25 45.544195 -122.953998 121 199ft 27kts
15-Nov-17 09:26 45.527465 -122.940649 203 987ft 107kts
15-Nov-17 09:27 45.501071 -122.952768 182 2538ft 103kts
15-Nov-17 09:28 45.469893 -122.956925 189 3342ft 122kts
15-Nov-17 09:29 45.456113 -122.960386 187 3405ft 134kts
15-Nov-17 09:30 45.420594 -122.965747 188 4040ft 127kts
15-Nov-17 09:31 45.386195 -122.971098 184 4685ft 124kts
15-Nov-17 09:32 45.352270 -122.982300 196 5045ft 133kts
15-Nov-17 09:33 45.315863 -122.984966 183 4947ft 121kts
15-Nov-17 09:34 45.284391 -122.984611 184 4990ft 110kts
15-Nov-17 09:35 45.255502 -122.994102 238 4765ft 125kts
15-Nov-17 09:36 45.253943 -123.045909 266 3952ft 131kts
15-Nov-17 09:37 45.240559 -123.086464 193 4074ft 125kts
15-Nov-17 09:38 45.206019 -123.099650 195 4021ft 134kts
15-Nov-17 09:39 45.167827 -123.113445 196 3426ft 149kts
15-Nov-17 09:40 45.130586 -123.131603 199 2987ft 136kts
15-Nov-17 09:41 45.095850 -123.144314 193 2940ft 125kts
15-Nov-17 09:42 45.062425 -123.122564 148 2297ft 145kts
15-Nov-17 09:43 45.030843 -123.098354 154 2166ft 116kts
15-Nov-17 09:44 45.002187 -123.076501 152 2160ft 118kts
15-Nov-17 09:45 44.974102 -123.052707 153 1502ft 110kts
15-Nov-17 09:46 44.947122 -123.031528 155 928ft 110kts
15-Nov-17 09:47 44.920352 -123.010412 154 577ft 116kts
15-Nov-17 09:48 44.890113 -122.986221 152 1995ft 130kts
15-Nov-17 09:49 44.858810 -122.959394 150 3165ft 134kts
15-Nov-17 09:50 44.826802 -122.934777 155 3886ft 132kts
15-Nov-17 09:51 44.805616 -122.894609 108 4071ft 149kts
15-Nov-17 09:52 44.781613 -122.873783 238 4060ft 133kts
15-Nov-17 09:53 44.803652 -122.912286 321 4109ft 141kts
15-Nov-17 09:54 44.839347 -122.936005 12 3980ft 149kts
15-Nov-17 09:55 44.844786 -122.890871 157 4042ft 142kts
15-Nov-17 09:56 44.808523 -122.875518 171 4123ft 143kts
15-Nov-17 09:57 44.773652 -122.872659 245 4047ft 139kts
15-Nov-17 09:58 44.797557 -122.913278 327 3043ft 156kts
15-Nov-17 09:59 44.835012 -122.937985 320 1879ft 144kts
15-Nov-17 10:00 44.864269 -122.964485 331 994ft 113kts
15-Nov-17 10:01 44.892006 -122.987133 327 522ft 128kts
15-Nov-17 10:02 44.911709 -123.003077 316 199ft 13kts
15-Nov-17 10:03 44.909028 -123.005537 252 201ft 12kts
15-Nov-17 10:04 44.908566 -123.006261 267 202ft 0kts

Navigation Log

Ident Type
Flight plan parsing failed, navigation log unavailable